sensor_id;sensor_type;location;lat;lon;timestamp;P1;durP1;ratioP1;P2;durP2;ratioP2
14847;SDS011;7516;43.570;1.448;2022-08-04T00:01:14;2.30;;;2.10;;
14847;SDS011;7516;43.570;1.448;2022-08-04T00:03:49;3.58;;;2.00;;
14847;SDS011;7516;43.570;1.448;2022-08-04T00:06:24;2.72;;;1.90;;
14847;SDS011;7516;43.570;1.448;2022-08-04T00:09:06;3.28;;;2.17;;
14847;SDS011;7516;43.570;1.448;2022-08-04T00:11:39;3.20;;;2.20;;
14847;SDS011;7516;43.570;1.448;2022-08-04T00:14:13;2.30;;;2.10;;
14847;SDS011;7516;43.570;1.448;2022-08-04T00:16:43;2.80;;;2.50;;
14847;SDS011;7516;43.570;1.448;2022-08-04T00:19:17;2.85;;;2.30;;
14847;SDS011;7516;43.570;1.448;2022-08-04T00:21:51;3.80;;;2.90;;
14847;SDS011;7516;43.570;1.448;2022-08-04T00:24:25;3.75;;;2.80;;
14847;SDS011;7516;43.570;1.448;2022-08-04T00:26:54;3.03;;;2.50;;
14847;SDS011;7516;43.570;1.448;2022-08-04T00:29:24;3.33;;;2.70;;
14847;SDS011;7516;43.570;1.448;2022-08-04T00:31:52;3.40;;;2.58;;
14847;SDS011;7516;43.570;1.448;2022-08-04T00:34:21;3.42;;;2.45;;
14847;SDS011;7516;43.570;1.448;2022-08-04T00:36:51;2.25;;;2.05;;
14847;SDS011;7516;43.570;1.448;2022-08-04T00:39:20;2.90;;;2.00;;
14847;SDS011;7516;43.570;1.448;2022-08-04T00:41:52;3.80;;;2.15;;
14847;SDS011;7516;43.570;1.448;2022-08-04T00:44:44;3.30;;;2.05;;
14847;SDS011;7516;43.570;1.448;2022-08-04T00:47:29;3.47;;;2.10;;
14847;SDS011;7516;43.570;1.448;2022-08-04T00:50:08;2.28;;;2.08;;
14847;SDS011;7516;43.570;1.448;2022-08-04T00:52:40;2.65;;;2.00;;
14847;SDS011;7516;43.570;1.448;2022-08-04T00:55:30;1.98;;;1.88;;
14847;SDS011;7516;43.570;1.448;2022-08-04T01:01:03;2.03;;;1.83;;
14847;SDS011;7516;43.570;1.448;2022-08-04T01:03:50;1.90;;;1.80;;
14847;SDS011;7516;43.570;1.448;2022-08-04T01:06:32;3.53;;;2.75;;
14847;SDS011;7516;43.570;1.448;2022-08-04T01:09:05;3.30;;;2.10;;
14847;SDS011;7516;43.570;1.448;2022-08-04T01:11:58;1.98;;;1.88;;
14847;SDS011;7516;43.570;1.448;2022-08-04T01:14:54;2.50;;;1.70;;
14847;SDS011;7516;43.570;1.448;2022-08-04T01:17:35;2.28;;;1.70;;
14847;SDS011;7516;43.570;1.448;2022-08-04T01:20:10;1.70;;;1.60;;
14847;SDS011;7516;43.570;1.448;2022-08-04T01:26:12;2.45;;;2.25;;
14847;SDS011;7516;43.570;1.448;2022-08-04T01:29:16;3.58;;;2.00;;
14847;SDS011;7516;43.570;1.448;2022-08-04T01:31:49;3.25;;;2.38;;
14847;SDS011;7516;43.570;1.448;2022-08-04T01:34:26;2.60;;;2.35;;
14847;SDS011;7516;43.570;1.448;2022-08-04T01:36:57;3.08;;;2.40;;
14847;SDS011;7516;43.570;1.448;2022-08-04T01:39:32;2.92;;;2.20;;
14847;SDS011;7516;43.570;1.448;2022-08-04T01:42:06;3.40;;;2.13;;
14847;SDS011;7516;43.570;1.448;2022-08-04T01:44:36;2.33;;;2.13;;
14847;SDS011;7516;43.570;1.448;2022-08-04T01:47:06;2.40;;;2.20;;
14847;SDS011;7516;43.570;1.448;2022-08-04T01:49:35;4.13;;;2.55;;
14847;SDS011;7516;43.570;1.448;2022-08-04T01:52:05;3.00;;;2.40;;
14847;SDS011;7516;43.570;1.448;2022-08-04T01:54:36;3.42;;;2.40;;
14847;SDS011;7516;43.570;1.448;2022-08-04T01:57:06;2.55;;;2.30;;
14847;SDS011;7516;43.570;1.448;2022-08-04T01:59:36;3.10;;;2.38;;
14847;SDS011;7516;43.570;1.448;2022-08-04T02:02:06;4.13;;;2.45;;
14847;SDS011;7516;43.570;1.448;2022-08-04T02:04:34;2.72;;;2.53;;
14847;SDS011;7516;43.570;1.448;2022-08-04T02:07:05;4.20;;;2.70;;
14847;SDS011;7516;43.570;1.448;2022-08-04T02:09:43;3.53;;;2.60;;
14847;SDS011;7516;43.570;1.448;2022-08-04T02:12:21;4.00;;;2.60;;
14847;SDS011;7516;43.570;1.448;2022-08-04T02:14:57;2.83;;;2.58;;
14847;SDS011;7516;43.570;1.448;2022-08-04T02:17:31;2.78;;;2.30;;
14847;SDS011;7516;43.570;1.448;2022-08-04T02:20:11;2.53;;;2.33;;
14847;SDS011;7516;43.570;1.448;2022-08-04T02:22:46;2.60;;;2.40;;
14847;SDS011;7516;43.570;1.448;2022-08-04T02:25:20;4.85;;;3.00;;
14847;SDS011;7516;43.570;1.448;2022-08-04T02:28:03;4.63;;;2.78;;
14847;SDS011;7516;43.570;1.448;2022-08-04T02:30:42;3.60;;;2.65;;
14847;SDS011;7516;43.570;1.448;2022-08-04T02:33:22;5.28;;;3.00;;
14847;SDS011;7516;43.570;1.448;2022-08-04T02:35:56;3.83;;;2.60;;
14847;SDS011;7516;43.570;1.448;2022-08-04T02:38:30;3.35;;;2.80;;
14847;SDS011;7516;43.570;1.448;2022-08-04T02:41:06;5.68;;;3.17;;
14847;SDS011;7516;43.570;1.448;2022-08-04T02:43:36;5.55;;;2.80;;
14847;SDS011;7516;43.570;1.448;2022-08-04T02:46:08;6.43;;;2.97;;
14847;SDS011;7516;43.570;1.448;2022-08-04T02:48:37;3.17;;;2.63;;
14847;SDS011;7516;43.570;1.448;2022-08-04T02:51:09;3.72;;;3.03;;
14847;SDS011;7516;43.570;1.448;2022-08-04T02:53:38;4.45;;;2.88;;
14847;SDS011;7516;43.570;1.448;2022-08-04T02:56:08;5.15;;;2.72;;
14847;SDS011;7516;43.570;1.448;2022-08-04T02:58:40;4.13;;;2.58;;
14847;SDS011;7516;43.570;1.448;2022-08-04T03:01:13;4.38;;;2.80;;
14847;SDS011;7516;43.570;1.448;2022-08-04T03:03:43;3.03;;;2.70;;
14847;SDS011;7516;43.570;1.448;2022-08-04T03:06:26;4.03;;;2.75;;
14847;SDS011;7516;43.570;1.448;2022-08-04T03:09:15;4.60;;;2.80;;
14847;SDS011;7516;43.570;1.448;2022-08-04T03:12:13;4.60;;;3.00;;
14847;SDS011;7516;43.570;1.448;2022-08-04T03:15:18;3.22;;;2.63;;
14847;SDS011;7516;43.570;1.448;2022-08-04T03:21:20;6.20;;;3.13;;
14847;SDS011;7516;43.570;1.448;2022-08-04T03:24:21;6.15;;;2.72;;
14847;SDS011;7516;43.570;1.448;2022-08-04T03:30:24;6.30;;;2.50;;
14847;SDS011;7516;43.570;1.448;2022-08-04T03:39:39;5.70;;;2.42;;
14847;SDS011;7516;43.570;1.448;2022-08-04T03:42:56;5.25;;;2.33;;
14847;SDS011;7516;43.570;1.448;2022-08-04T03:45:58;8.88;;;2.65;;
14847;SDS011;7516;43.570;1.448;2022-08-04T03:51:57;5.47;;;2.75;;
14847;SDS011;7516;43.570;1.448;2022-08-04T03:58:27;5.28;;;2.50;;
14847;SDS011;7516;43.570;1.448;2022-08-04T04:01:21;5.90;;;2.90;;
14847;SDS011;7516;43.570;1.448;2022-08-04T04:04:19;3.47;;;2.50;;
14847;SDS011;7516;43.570;1.448;2022-08-04T04:10:18;3.65;;;2.20;;
14847;SDS011;7516;43.570;1.448;2022-08-04T04:13:26;3.33;;;2.50;;
14847;SDS011;7516;43.570;1.448;2022-08-04T04:19:49;3.88;;;2.13;;
14847;SDS011;7516;43.570;1.448;2022-08-04T04:22:28;4.70;;;2.70;;
14847;SDS011;7516;43.570;1.448;2022-08-04T04:25:09;4.28;;;2.40;;
14847;SDS011;7516;43.570;1.448;2022-08-04T04:27:50;3.97;;;2.30;;
14847;SDS011;7516;43.570;1.448;2022-08-04T04:30:35;4.60;;;2.80;;
14847;SDS011;7516;43.570;1.448;2022-08-04T04:33:25;4.53;;;2.22;;
14847;SDS011;7516;43.570;1.448;2022-08-04T04:36:05;5.00;;;2.67;;
14847;SDS011;7516;43.570;1.448;2022-08-04T04:38:41;3.45;;;2.40;;
14847;SDS011;7516;43.570;1.448;2022-08-04T04:41:29;5.30;;;2.72;;
14847;SDS011;7516;43.570;1.448;2022-08-04T04:47:32;5.53;;;2.42;;
14847;SDS011;7516;43.570;1.448;2022-08-04T04:50:13;4.90;;;3.20;;
14847;SDS011;7516;43.570;1.448;2022-08-04T04:52:51;4.80;;;2.60;;
14847;SDS011;7516;43.570;1.448;2022-08-04T04:55:23;5.60;;;3.17;;
14847;SDS011;7516;43.570;1.448;2022-08-04T04:57:55;5.88;;;2.83;;
14847;SDS011;7516;43.570;1.448;2022-08-04T05:03:29;4.10;;;2.45;;
14847;SDS011;7516;43.570;1.448;2022-08-04T05:06:20;4.10;;;2.45;;
14847;SDS011;7516;43.570;1.448;2022-08-04T05:09:06;4.72;;;2.53;;
14847;SDS011;7516;43.570;1.448;2022-08-04T05:11:59;6.88;;;3.08;;
14847;SDS011;7516;43.570;1.448;2022-08-04T05:14:40;3.95;;;2.40;;
14847;SDS011;7516;43.570;1.448;2022-08-04T05:17:14;6.97;;;3.08;;
14847;SDS011;7516;43.570;1.448;2022-08-04T05:19:51;4.05;;;2.70;;
14847;SDS011;7516;43.570;1.448;2022-08-04T05:22:25;6.75;;;3.20;;
14847;SDS011;7516;43.570;1.448;2022-08-04T05:24:59;5.38;;;2.95;;
14847;SDS011;7516;43.570;1.448;2022-08-04T05:27:34;5.78;;;3.13;;
14847;SDS011;7516;43.570;1.448;2022-08-04T05:30:05;6.57;;;3.10;;
14847;SDS011;7516;43.570;1.448;2022-08-04T05:32:36;6.82;;;3.15;;
14847;SDS011;7516;43.570;1.448;2022-08-04T05:35:10;6.15;;;2.97;;
14847;SDS011;7516;43.570;1.448;2022-08-04T05:37:41;6.03;;;3.30;;
14847;SDS011;7516;43.570;1.448;2022-08-04T05:40:12;4.93;;;2.97;;
14847;SDS011;7516;43.570;1.448;2022-08-04T05:42:42;9.32;;;3.10;;
14847;SDS011;7516;43.570;1.448;2022-08-04T05:45:10;5.30;;;3.22;;
14847;SDS011;7516;43.570;1.448;2022-08-04T05:47:39;9.32;;;3.75;;
14847;SDS011;7516;43.570;1.448;2022-08-04T05:50:07;5.18;;;3.20;;
14847;SDS011;7516;43.570;1.448;2022-08-04T05:52:38;6.57;;;3.67;;
14847;SDS011;7516;43.570;1.448;2022-08-04T05:55:07;3.75;;;3.10;;
14847;SDS011;7516;43.570;1.448;2022-08-04T05:57:37;6.47;;;3.80;;
14847;SDS011;7516;43.570;1.448;2022-08-04T06:00:06;7.53;;;4.40;;
14847;SDS011;7516;43.570;1.448;2022-08-04T06:02:35;6.43;;;3.70;;
14847;SDS011;7516;43.570;1.448;2022-08-04T06:05:04;6.07;;;3.72;;
14847;SDS011;7516;43.570;1.448;2022-08-04T06:07:35;7.80;;;3.85;;
14847;SDS011;7516;43.570;1.448;2022-08-04T06:10:03;5.57;;;3.70;;
14847;SDS011;7516;43.570;1.448;2022-08-04T06:12:35;6.25;;;3.58;;
14847;SDS011;7516;43.570;1.448;2022-08-04T06:15:05;5.93;;;4.22;;
14847;SDS011;7516;43.570;1.448;2022-08-04T06:17:38;6.00;;;3.70;;
14847;SDS011;7516;43.570;1.448;2022-08-04T06:20:09;4.68;;;3.40;;
14847;SDS011;7516;43.570;1.448;2022-08-04T06:22:41;5.60;;;3.67;;
14847;SDS011;7516;43.570;1.448;2022-08-04T06:25:12;5.82;;;4.00;;
14847;SDS011;7516;43.570;1.448;2022-08-04T06:27:45;6.07;;;3.85;;
14847;SDS011;7516;43.570;1.448;2022-08-04T06:30:14;7.03;;;4.15;;
14847;SDS011;7516;43.570;1.448;2022-08-04T06:32:43;7.28;;;4.07;;
14847;SDS011;7516;43.570;1.448;2022-08-04T06:35:19;4.97;;;4.03;;
14847;SDS011;7516;43.570;1.448;2022-08-04T06:37:50;7.10;;;4.07;;
14847;SDS011;7516;43.570;1.448;2022-08-04T06:40:21;5.55;;;3.67;;
14847;SDS011;7516;43.570;1.448;2022-08-04T06:42:50;5.88;;;4.03;;
14847;SDS011;7516;43.570;1.448;2022-08-04T06:45:18;7.25;;;4.03;;
14847;SDS011;7516;43.570;1.448;2022-08-04T06:47:47;5.65;;;3.90;;
14847;SDS011;7516;43.570;1.448;2022-08-04T06:50:15;11.55;;;4.70;;
14847;SDS011;7516;43.570;1.448;2022-08-04T06:52:43;7.82;;;4.15;;
14847;SDS011;7516;43.570;1.448;2022-08-04T06:55:12;7.93;;;4.43;;
14847;SDS011;7516;43.570;1.448;2022-08-04T06:57:40;6.93;;;4.57;;
14847;SDS011;7516;43.570;1.448;2022-08-04T07:00:09;4.53;;;4.07;;
14847;SDS011;7516;43.570;1.448;2022-08-04T07:02:40;7.20;;;4.07;;
14847;SDS011;7516;43.570;1.448;2022-08-04T07:05:10;8.48;;;4.65;;
14847;SDS011;7516;43.570;1.448;2022-08-04T07:07:38;7.40;;;4.05;;
14847;SDS011;7516;43.570;1.448;2022-08-04T07:10:07;4.70;;;3.60;;
14847;SDS011;7516;43.570;1.448;2022-08-04T07:12:37;10.45;;;4.30;;
14847;SDS011;7516;43.570;1.448;2022-08-04T07:15:05;6.38;;;3.95;;
14847;SDS011;7516;43.570;1.448;2022-08-04T07:17:36;5.55;;;3.80;;
14847;SDS011;7516;43.570;1.448;2022-08-04T07:20:05;8.73;;;4.25;;
14847;SDS011;7516;43.570;1.448;2022-08-04T07:22:33;9.93;;;4.53;;
14847;SDS011;7516;43.570;1.448;2022-08-04T07:25:07;10.45;;;4.20;;
14847;SDS011;7516;43.570;1.448;2022-08-04T07:27:38;6.65;;;4.03;;
14847;SDS011;7516;43.570;1.448;2022-08-04T07:30:07;8.80;;;4.80;;
14847;SDS011;7516;43.570;1.448;2022-08-04T07:32:36;6.47;;;4.43;;
14847;SDS011;7516;43.570;1.448;2022-08-04T07:35:05;6.57;;;4.88;;
14847;SDS011;7516;43.570;1.448;2022-08-04T07:37:34;7.55;;;4.18;;
14847;SDS011;7516;43.570;1.448;2022-08-04T07:40:02;4.60;;;4.15;;
14847;SDS011;7516;43.570;1.448;2022-08-04T07:42:31;5.32;;;4.38;;
14847;SDS011;7516;43.570;1.448;2022-08-04T07:45:00;8.27;;;4.45;;
14847;SDS011;7516;43.570;1.448;2022-08-04T07:47:28;5.78;;;4.60;;
14847;SDS011;7516;43.570;1.448;2022-08-04T07:49:55;6.22;;;4.55;;
14847;SDS011;7516;43.570;1.448;2022-08-04T07:52:24;6.10;;;4.13;;
14847;SDS011;7516;43.570;1.448;2022-08-04T07:54:52;7.32;;;4.63;;
14847;SDS011;7516;43.570;1.448;2022-08-04T07:57:21;8.55;;;4.38;;
14847;SDS011;7516;43.570;1.448;2022-08-04T07:59:48;6.18;;;4.85;;
14847;SDS011;7516;43.570;1.448;2022-08-04T08:02:17;4.85;;;4.32;;
14847;SDS011;7516;43.570;1.448;2022-08-04T08:04:47;6.43;;;4.55;;
14847;SDS011;7516;43.570;1.448;2022-08-04T08:07:17;11.05;;;5.32;;
14847;SDS011;7516;43.570;1.448;2022-08-04T08:09:45;8.27;;;4.65;;
14847;SDS011;7516;43.570;1.448;2022-08-04T08:12:12;6.10;;;4.57;;
14847;SDS011;7516;43.570;1.448;2022-08-04T08:14:40;7.10;;;5.00;;
14847;SDS011;7516;43.570;1.448;2022-08-04T08:17:08;11.75;;;4.43;;
14847;SDS011;7516;43.570;1.448;2022-08-04T08:19:37;7.68;;;4.90;;
14847;SDS011;7516;43.570;1.448;2022-08-04T08:22:05;5.75;;;4.75;;
14847;SDS011;7516;43.570;1.448;2022-08-04T08:24:34;6.47;;;4.93;;
14847;SDS011;7516;43.570;1.448;2022-08-04T08:27:02;7.88;;;4.75;;
14847;SDS011;7516;43.570;1.448;2022-08-04T08:29:31;7.80;;;4.72;;
14847;SDS011;7516;43.570;1.448;2022-08-04T08:32:00;10.73;;;4.93;;
14847;SDS011;7516;43.570;1.448;2022-08-04T08:34:28;7.00;;;5.20;;
14847;SDS011;7516;43.570;1.448;2022-08-04T08:37:00;5.93;;;4.55;;
14847;SDS011;7516;43.570;1.448;2022-08-04T08:39:37;11.23;;;4.40;;
14847;SDS011;7516;43.570;1.448;2022-08-04T08:45:16;8.75;;;4.47;;
14847;SDS011;7516;43.570;1.448;2022-08-04T08:48:20;8.05;;;4.63;;
14847;SDS011;7516;43.570;1.448;2022-08-04T08:57:21;5.07;;;4.45;;
14847;SDS011;7516;43.570;1.448;2022-08-04T09:00:03;7.55;;;4.60;;
14847;SDS011;7516;43.570;1.448;2022-08-04T09:06:08;6.80;;;4.40;;
14847;SDS011;7516;43.570;1.448;2022-08-04T09:09:01;6.03;;;4.32;;
14847;SDS011;7516;43.570;1.448;2022-08-04T09:11:47;5.78;;;4.28;;
14847;SDS011;7516;43.570;1.448;2022-08-04T09:14:23;5.35;;;4.57;;
14847;SDS011;7516;43.570;1.448;2022-08-04T09:16:59;6.78;;;4.57;;
14847;SDS011;7516;43.570;1.448;2022-08-04T09:19:32;9.13;;;4.60;;
14847;SDS011;7516;43.570;1.448;2022-08-04T09:22:08;6.35;;;4.03;;
14847;SDS011;7516;43.570;1.448;2022-08-04T09:24:40;5.70;;;4.53;;
14847;SDS011;7516;43.570;1.448;2022-08-04T09:27:24;8.90;;;4.63;;
14847;SDS011;7516;43.570;1.448;2022-08-04T09:30:01;5.75;;;4.70;;
14847;SDS011;7516;43.570;1.448;2022-08-04T09:32:33;5.65;;;4.03;;
14847;SDS011;7516;43.570;1.448;2022-08-04T09:35:12;7.13;;;4.60;;
14847;SDS011;7516;43.570;1.448;2022-08-04T09:37:51;9.05;;;4.30;;
14847;SDS011;7516;43.570;1.448;2022-08-04T09:40:26;4.97;;;4.47;;
14847;SDS011;7516;43.570;1.448;2022-08-04T09:43:04;4.55;;;4.00;;
14847;SDS011;7516;43.570;1.448;2022-08-04T09:45:44;4.95;;;4.30;;
14847;SDS011;7516;43.570;1.448;2022-08-04T09:48:23;7.65;;;4.18;;
14847;SDS011;7516;43.570;1.448;2022-08-04T09:50:57;5.43;;;4.18;;
14847;SDS011;7516;43.570;1.448;2022-08-04T09:53:34;4.72;;;3.97;;
14847;SDS011;7516;43.570;1.448;2022-08-04T09:56:13;6.57;;;3.72;;
14847;SDS011;7516;43.570;1.448;2022-08-04T09:58:52;5.97;;;4.30;;
14847;SDS011;7516;43.570;1.448;2022-08-04T10:01:25;5.53;;;4.10;;
14847;SDS011;7516;43.570;1.448;2022-08-04T10:03:58;7.75;;;3.92;;
14847;SDS011;7516;43.570;1.448;2022-08-04T10:06:31;8.23;;;3.60;;
14847;SDS011;7516;43.570;1.448;2022-08-04T10:09:29;4.63;;;3.90;;
14847;SDS011;7516;43.570;1.448;2022-08-04T10:12:13;5.53;;;4.05;;
14847;SDS011;7516;43.570;1.448;2022-08-04T10:14:56;7.57;;;4.38;;
14847;SDS011;7516;43.570;1.448;2022-08-04T10:17:34;4.78;;;3.75;;
14847;SDS011;7516;43.570;1.448;2022-08-04T10:20:09;5.95;;;4.25;;
14847;SDS011;7516;43.570;1.448;2022-08-04T10:22:49;5.60;;;4.03;;
14847;SDS011;7516;43.570;1.448;2022-08-04T10:25:27;4.70;;;3.95;;
14847;SDS011;7516;43.570;1.448;2022-08-04T10:28:04;5.45;;;4.50;;
14847;SDS011;7516;43.570;1.448;2022-08-04T10:30:39;4.50;;;4.15;;
14847;SDS011;7516;43.570;1.448;2022-08-04T10:33:17;5.10;;;4.15;;
14847;SDS011;7516;43.570;1.448;2022-08-04T10:35:50;6.30;;;4.28;;
14847;SDS011;7516;43.570;1.448;2022-08-04T10:38:28;7.70;;;4.50;;
14847;SDS011;7516;43.570;1.448;2022-08-04T10:40:57;4.75;;;4.18;;
14847;SDS011;7516;43.570;1.448;2022-08-04T10:43:32;4.70;;;4.22;;
14847;SDS011;7516;43.570;1.448;2022-08-04T10:46:11;5.30;;;4.72;;
14847;SDS011;7516;43.570;1.448;2022-08-04T10:48:43;5.45;;;5.03;;
14847;SDS011;7516;43.570;1.448;2022-08-04T10:51:18;6.97;;;4.88;;
14847;SDS011;7516;43.570;1.448;2022-08-04T10:53:52;6.15;;;4.78;;
14847;SDS011;7516;43.570;1.448;2022-08-04T10:56:27;5.82;;;5.32;;
14847;SDS011;7516;43.570;1.448;2022-08-04T10:59:01;5.80;;;4.75;;
14847;SDS011;7516;43.570;1.448;2022-08-04T11:01:36;8.90;;;5.65;;
14847;SDS011;7516;43.570;1.448;2022-08-04T11:04:09;5.60;;;4.97;;
14847;SDS011;7516;43.570;1.448;2022-08-04T11:06:42;5.70;;;5.10;;
14847;SDS011;7516;43.570;1.448;2022-08-04T11:09:12;5.60;;;5.10;;
14847;SDS011;7516;43.570;1.448;2022-08-04T11:11:42;6.22;;;5.35;;
14847;SDS011;7516;43.570;1.448;2022-08-04T11:14:14;6.40;;;5.35;;
14847;SDS011;7516;43.570;1.448;2022-08-04T11:16:46;5.38;;;4.88;;
14847;SDS011;7516;43.570;1.448;2022-08-04T11:19:21;6.30;;;5.63;;
14847;SDS011;7516;43.570;1.448;2022-08-04T11:21:57;7.88;;;5.15;;
14847;SDS011;7516;43.570;1.448;2022-08-04T11:24:34;6.30;;;5.35;;
14847;SDS011;7516;43.570;1.448;2022-08-04T11:27:12;5.88;;;5.32;;
14847;SDS011;7516;43.570;1.448;2022-08-04T11:29:45;6.95;;;5.80;;
14847;SDS011;7516;43.570;1.448;2022-08-04T11:32:25;6.80;;;5.55;;
14847;SDS011;7516;43.570;1.448;2022-08-04T11:34:59;6.70;;;6.00;;
14847;SDS011;7516;43.570;1.448;2022-08-04T11:37:35;5.88;;;5.38;;
14847;SDS011;7516;43.570;1.448;2022-08-04T11:40:11;7.25;;;5.60;;
14847;SDS011;7516;43.570;1.448;2022-08-04T11:42:49;6.45;;;5.80;;
14847;SDS011;7516;43.570;1.448;2022-08-04T11:45:23;5.97;;;5.45;;
14847;SDS011;7516;43.570;1.448;2022-08-04T11:47:59;6.07;;;5.47;;
14847;SDS011;7516;43.570;1.448;2022-08-04T11:50:31;7.20;;;5.82;;
14847;SDS011;7516;43.570;1.448;2022-08-04T11:53:05;5.78;;;5.28;;
14847;SDS011;7516;43.570;1.448;2022-08-04T11:55:37;6.32;;;5.40;;
14847;SDS011;7516;43.570;1.448;2022-08-04T11:58:05;7.15;;;5.75;;
14847;SDS011;7516;43.570;1.448;2022-08-04T12:00:32;5.70;;;5.20;;
14847;SDS011;7516;43.570;1.448;2022-08-04T12:03:14;5.60;;;5.20;;
14847;SDS011;7516;43.570;1.448;2022-08-04T12:05:54;6.18;;;5.53;;
14847;SDS011;7516;43.570;1.448;2022-08-04T12:08:35;8.27;;;5.80;;
14847;SDS011;7516;43.570;1.448;2022-08-04T12:11:20;6.70;;;6.00;;
14847;SDS011;7516;43.570;1.448;2022-08-04T12:14:01;6.72;;;5.75;;
14847;SDS011;7516;43.570;1.448;2022-08-04T12:16:37;7.85;;;5.88;;
14847;SDS011;7516;43.570;1.448;2022-08-04T12:19:19;7.63;;;5.32;;
14847;SDS011;7516;43.570;1.448;2022-08-04T12:21:54;6.32;;;5.72;;
14847;SDS011;7516;43.570;1.448;2022-08-04T12:24:26;8.00;;;5.60;;
14847;SDS011;7516;43.570;1.448;2022-08-04T12:26:58;5.90;;;5.40;;
14847;SDS011;7516;43.570;1.448;2022-08-04T12:29:32;6.35;;;5.75;;
14847;SDS011;7516;43.570;1.448;2022-08-04T12:32:03;6.50;;;5.85;;
14847;SDS011;7516;43.570;1.448;2022-08-04T12:34:46;7.55;;;5.72;;
14847;SDS011;7516;43.570;1.448;2022-08-04T12:37:26;6.15;;;5.55;;
14847;SDS011;7516;43.570;1.448;2022-08-04T12:40:02;6.68;;;5.88;;
14847;SDS011;7516;43.570;1.448;2022-08-04T12:42:35;5.95;;;5.32;;
14847;SDS011;7516;43.570;1.448;2022-08-04T12:45:10;7.97;;;5.40;;
14847;SDS011;7516;43.570;1.448;2022-08-04T12:47:39;6.30;;;5.80;;
14847;SDS011;7516;43.570;1.448;2022-08-04T12:50:12;5.78;;;5.28;;
14847;SDS011;7516;43.570;1.448;2022-08-04T12:52:43;7.60;;;5.32;;
14847;SDS011;7516;43.570;1.448;2022-08-04T12:55:13;5.72;;;5.22;;
14847;SDS011;7516;43.570;1.448;2022-08-04T12:57:42;5.85;;;5.30;;
14847;SDS011;7516;43.570;1.448;2022-08-04T13:00:11;5.75;;;5.25;;
14847;SDS011;7516;43.570;1.448;2022-08-04T13:02:50;5.53;;;5.10;;
14847;SDS011;7516;43.570;1.448;2022-08-04T13:05:21;5.93;;;5.43;;
14847;SDS011;7516;43.570;1.448;2022-08-04T13:07:50;5.95;;;5.22;;
14847;SDS011;7516;43.570;1.448;2022-08-04T13:10:20;5.50;;;4.93;;
14847;SDS011;7516;43.570;1.448;2022-08-04T13:12:50;6.78;;;5.20;;
14847;SDS011;7516;43.570;1.448;2022-08-04T13:15:22;7.32;;;5.30;;
14847;SDS011;7516;43.570;1.448;2022-08-04T13:17:52;6.88;;;5.38;;
14847;SDS011;7516;43.570;1.448;2022-08-04T13:20:26;6.43;;;5.82;;
14847;SDS011;7516;43.570;1.448;2022-08-04T13:22:59;5.63;;;5.13;;
14847;SDS011;7516;43.570;1.448;2022-08-04T13:25:31;5.45;;;4.90;;
14847;SDS011;7516;43.570;1.448;2022-08-04T13:28:00;5.85;;;5.22;;
14847;SDS011;7516;43.570;1.448;2022-08-04T13:30:29;6.38;;;5.07;;
14847;SDS011;7516;43.570;1.448;2022-08-04T13:32:59;5.20;;;4.70;;
14847;SDS011;7516;43.570;1.448;2022-08-04T13:35:29;4.97;;;4.50;;
14847;SDS011;7516;43.570;1.448;2022-08-04T13:37:59;5.38;;;4.78;;
14847;SDS011;7516;43.570;1.448;2022-08-04T13:40:28;5.45;;;4.95;;
14847;SDS011;7516;43.570;1.448;2022-08-04T13:42:57;5.18;;;4.68;;
14847;SDS011;7516;43.570;1.448;2022-08-04T13:45:25;5.00;;;4.47;;
14847;SDS011;7516;43.570;1.448;2022-08-04T13:47:56;5.20;;;4.70;;
14847;SDS011;7516;43.570;1.448;2022-08-04T13:50:27;4.97;;;4.53;;
14847;SDS011;7516;43.570;1.448;2022-08-04T13:52:57;7.00;;;4.50;;
14847;SDS011;7516;43.570;1.448;2022-08-04T13:55:27;5.55;;;4.50;;
14847;SDS011;7516;43.570;1.448;2022-08-04T13:58:01;4.80;;;4.30;;
14847;SDS011;7516;43.570;1.448;2022-08-04T14:00:38;7.05;;;4.60;;
14847;SDS011;7516;43.570;1.448;2022-08-04T14:03:13;5.60;;;4.55;;
14847;SDS011;7516;43.570;1.448;2022-08-04T14:08:33;5.22;;;4.78;;
14847;SDS011;7516;43.570;1.448;2022-08-04T14:11:10;5.68;;;4.55;;
14847;SDS011;7516;43.570;1.448;2022-08-04T14:13:38;5.10;;;4.70;;
14847;SDS011;7516;43.570;1.448;2022-08-04T14:16:16;5.07;;;4.32;;
14847;SDS011;7516;43.570;1.448;2022-08-04T14:18:45;4.97;;;4.32;;
14847;SDS011;7516;43.570;1.448;2022-08-04T14:21:23;5.28;;;4.10;;
14847;SDS011;7516;43.570;1.448;2022-08-04T14:23:52;4.60;;;4.20;;
14847;SDS011;7516;43.570;1.448;2022-08-04T14:26:22;4.40;;;4.00;;
14847;SDS011;7516;43.570;1.448;2022-08-04T14:28:51;4.78;;;4.28;;
14847;SDS011;7516;43.570;1.448;2022-08-04T14:31:22;4.53;;;3.95;;
14847;SDS011;7516;43.570;1.448;2022-08-04T14:33:51;4.78;;;3.80;;
14847;SDS011;7516;43.570;1.448;2022-08-04T14:36:19;4.50;;;4.10;;
14847;SDS011;7516;43.570;1.448;2022-08-04T14:38:52;4.40;;;4.00;;
14847;SDS011;7516;43.570;1.448;2022-08-04T14:41:22;4.30;;;3.90;;
14847;SDS011;7516;43.570;1.448;2022-08-04T14:43:51;5.40;;;4.15;;
14847;SDS011;7516;43.570;1.448;2022-08-04T14:46:20;5.20;;;4.28;;
14847;SDS011;7516;43.570;1.448;2022-08-04T14:49:04;4.10;;;3.70;;
14847;SDS011;7516;43.570;1.448;2022-08-04T14:51:34;4.38;;;3.97;;
14847;SDS011;7516;43.570;1.448;2022-08-04T14:54:04;4.80;;;4.30;;
14847;SDS011;7516;43.570;1.448;2022-08-04T14:56:33;4.20;;;3.83;;
14847;SDS011;7516;43.570;1.448;2022-08-04T14:59:03;4.47;;;4.07;;
14847;SDS011;7516;43.570;1.448;2022-08-04T15:01:32;4.57;;;4.18;;
14847;SDS011;7516;43.570;1.448;2022-08-04T15:04:01;4.35;;;3.95;;
14847;SDS011;7516;43.570;1.448;2022-08-04T15:06:31;4.10;;;3.70;;
14847;SDS011;7516;43.570;1.448;2022-08-04T15:09:01;4.20;;;3.80;;
14847;SDS011;7516;43.570;1.448;2022-08-04T15:11:32;4.93;;;3.75;;
14847;SDS011;7516;43.570;1.448;2022-08-04T15:14:00;5.78;;;3.85;;
14847;SDS011;7516;43.570;1.448;2022-08-04T15:16:29;4.45;;;4.03;;
14847;SDS011;7516;43.570;1.448;2022-08-04T15:18:57;4.03;;;3.63;;
14847;SDS011;7516;43.570;1.448;2022-08-04T15:21:26;3.90;;;3.45;;
14847;SDS011;7516;43.570;1.448;2022-08-04T15:23:55;4.15;;;3.85;;
14847;SDS011;7516;43.570;1.448;2022-08-04T15:26:26;4.28;;;3.60;;
14847;SDS011;7516;43.570;1.448;2022-08-04T15:29:00;4.00;;;3.58;;
14847;SDS011;7516;43.570;1.448;2022-08-04T15:31:34;4.10;;;3.70;;
14847;SDS011;7516;43.570;1.448;2022-08-04T15:34:05;4.28;;;3.70;;
14847;SDS011;7516;43.570;1.448;2022-08-04T15:36:34;5.13;;;4.13;;
14847;SDS011;7516;43.570;1.448;2022-08-04T15:39:16;4.47;;;3.78;;
14847;SDS011;7516;43.570;1.448;2022-08-04T15:41:57;3.97;;;3.60;;
14847;SDS011;7516;43.570;1.448;2022-08-04T15:44:45;4.50;;;4.15;;
14847;SDS011;7516;43.570;1.448;2022-08-04T15:47:29;4.47;;;4.07;;
14847;SDS011;7516;43.570;1.448;2022-08-04T15:52:59;6.80;;;4.13;;
14847;SDS011;7516;43.570;1.448;2022-08-04T15:55:29;3.95;;;3.60;;
14847;SDS011;7516;43.570;1.448;2022-08-04T15:58:00;4.50;;;3.85;;
14847;SDS011;7516;43.570;1.448;2022-08-04T16:00:36;4.45;;;3.85;;
14847;SDS011;7516;43.570;1.448;2022-08-04T16:03:39;4.53;;;3.58;;
14847;SDS011;7516;43.570;1.448;2022-08-04T16:09:07;4.28;;;3.80;;
14847;SDS011;7516;43.570;1.448;2022-08-04T16:11:45;4.00;;;3.60;;
14847;SDS011;7516;43.570;1.448;2022-08-04T16:14:14;3.80;;;3.50;;
14847;SDS011;7516;43.570;1.448;2022-08-04T16:16:45;5.00;;;3.70;;
14847;SDS011;7516;43.570;1.448;2022-08-04T16:19:18;4.10;;;3.70;;
14847;SDS011;7516;43.570;1.448;2022-08-04T16:21:51;3.72;;;3.42;;
14847;SDS011;7516;43.570;1.448;2022-08-04T16:24:20;4.53;;;4.03;;
14847;SDS011;7516;43.570;1.448;2022-08-04T16:26:53;4.38;;;3.85;;
14847;SDS011;7516;43.570;1.448;2022-08-04T16:29:30;4.30;;;4.00;;
14847;SDS011;7516;43.570;1.448;2022-08-04T16:32:16;5.07;;;4.15;;
14847;SDS011;7516;43.570;1.448;2022-08-04T16:34:46;4.57;;;3.92;;
14847;SDS011;7516;43.570;1.448;2022-08-04T16:37:17;5.00;;;4.50;;
14847;SDS011;7516;43.570;1.448;2022-08-04T16:39:46;4.30;;;4.00;;
14847;SDS011;7516;43.570;1.448;2022-08-04T16:42:30;4.18;;;3.63;;
14847;SDS011;7516;43.570;1.448;2022-08-04T16:45:00;3.70;;;3.40;;
14847;SDS011;7516;43.570;1.448;2022-08-04T16:50:28;3.85;;;3.30;;